Time;durP1;ratioP1;P1;durP2;ratioP2;P2;SDS_P1;SDS_P2;PMS_P1;PMS_P2;Temp;Humidity;BMP_temperature;BMP_pressure;BME280_temperature;BME280_humidity;BME280_pressure;Samples;Min_cycle;Max_cycle;Signal;HPM_P1;HPM_P2
2020/12/09 00:02:08;;;;;;;18.20;8.53;;;;;;;-7.69;71.88;101764.17;1812204;78;21183;-71
2020/12/09 00:04:39;;;;;;;16.30;7.92;;;;;;;-7.69;71.90;101762.88;1794067;78;21120;-71
2020/12/09 00:07:08;;;;;;;19.25;8.03;;;;;;;-7.66;71.86;101760.89;1789570;78;21132;-72
2020/12/09 00:09:35;;;;;;;15.98;7.25;;;;;;;-7.58;71.83;101756.44;1793538;78;21132;-72
2020/12/09 00:12:03;;;;;;;13.40;6.65;;;;;;;-7.52;71.75;101754.71;1767583;81;21250;-71
2020/12/09 00:14:30;;;;;;;14.15;7.53;;;;;;;-7.49;71.68;101751.90;1785879;79;21180;-72
2020/12/09 00:16:58;;;;;;;15.00;6.90;;;;;;;-7.41;71.65;101744.38;1779541;78;21401;-72
2020/12/09 00:19:25;;;;;;;16.50;8.23;;;;;;;-7.31;71.57;101749.73;1779843;79;21175;-72
2020/12/09 00:21:53;;;;;;;17.52;7.60;;;;;;;-7.21;71.53;101753.78;1811411;78;21196;-72
2020/12/09 00:24:20;;;;;;;12.85;6.30;;;;;;;-7.13;71.40;101746.28;1781047;80;21243;-73
2020/12/09 00:26:48;;;;;;;15.68;7.42;;;;;;;-7.01;71.17;101747.12;1782923;78;21189;-72
2020/12/09 00:29:15;;;;;;;16.27;7.42;;;;;;;-6.91;70.97;101750.70;1783501;79;21392;-71
2020/12/09 00:31:43;;;;;;;12.73;7.03;;;;;;;-6.81;70.83;101741.75;1792314;78;21692;-70
2020/12/09 00:34:11;;;;;;;10.93;5.53;;;;;;;-6.72;70.61;101744.97;1787003;79;21231;-71
2020/12/09 00:36:39;;;;;;;13.20;6.65;;;;;;;-6.70;70.27;101737.42;1791694;79;21184;-71
2020/12/09 00:39:07;;;;;;;13.88;7.33;;;;;;;-6.64;69.98;101739.56;1789411;79;21180;-71
2020/12/09 00:41:34;;;;;;;14.45;7.33;;;;;;;-6.60;69.68;101740.16;1797774;79;21896;-72
2020/12/09 00:44:10;;;;;;;12.80;6.30;;;;;;;-6.55;69.45;101735.89;1793009;78;21151;-70
2020/12/09 00:46:39;;;;;;;15.98;6.05;;;;;;;-6.50;69.18;101732.02;1799832;78;21121;-71
2020/12/09 00:49:09;;;;;;;10.55;5.42;;;;;;;-6.46;68.89;101733.42;1800934;79;21536;-70
2020/12/09 00:51:37;;;;;;;15.45;7.33;;;;;;;-6.45;68.66;101726.45;1804438;78;21109;-72
2020/12/09 00:54:05;;;;;;;12.58;5.65;;;;;;;-6.43;68.69;101726.70;1765040;79;21699;-71
2020/12/09 00:56:35;;;;;;;13.68;7.25;;;;;;;-6.39;68.57;101728.11;1797983;79;21705;-72
2020/12/09 00:59:04;;;;;;;14.50;6.80;;;;;;;-6.38;68.42;101723.28;1798136;79;21183;-72
2020/12/09 01:01:33;;;;;;;15.40;6.67;;;;;;;-6.35;68.30;101723.50;1795589;79;21172;-72
2020/12/09 01:04:05;;;;;;;16.85;7.50;;;;;;;-6.32;68.27;101721.14;1790958;78;21199;-71
2020/12/09 01:06:35;;;;;;;14.38;6.85;;;;;;;-6.32;68.31;101722.44;1789408;79;21450;-73
2020/12/09 01:09:06;;;;;;;9.13;4.72;;;;;;;-6.28;68.20;101719.50;1767625;79;21233;-73
2020/12/09 01:11:35;;;;;;;13.10;6.50;;;;;;;-6.23;68.06;101717.36;1816304;78;21274;-73
2020/12/09 01:14:02;;;;;;;12.00;5.80;;;;;;;-6.20;68.02;101716.30;1796678;79;21152;-72
2020/12/09 01:16:30;;;;;;;14.23;7.50;;;;;;;-6.17;67.87;101710.39;1786451;79;21208;-73
2020/12/09 01:18:57;;;;;;;12.55;6.30;;;;;;;-6.14;67.93;101706.73;1795420;79;21714;-73
2020/12/09 01:21:31;;;;;;;12.93;6.70;;;;;;;-6.09;67.90;101708.48;1789539;78;21235;-72
2020/12/09 01:23:59;;;;;;;13.55;6.55;;;;;;;-6.03;67.75;101709.78;1790570;79;21607;-72
2020/12/09 01:26:26;;;;;;;13.28;6.40;;;;;;;-6.02;67.71;101704.48;1796792;78;21256;-71
2020/12/09 01:28:54;;;;;;;13.83;6.67;;;;;;;-5.97;67.72;101701.50;1781943;79;21860;-71
2020/12/09 01:31:22;;;;;;;12.18;6.15;;;;;;;-5.95;67.55;101704.34;1792623;78;21326;-72
2020/12/09 01:33:49;;;;;;;14.50;7.05;;;;;;;-5.94;67.55;101705.16;1795039;79;21124;-71
2020/12/09 01:36:24;;;;;;;13.78;6.42;;;;;;;-5.91;67.59;101699.20;1794131;79;21173;-71
2020/12/09 01:38:56;;;;;;;12.05;6.05;;;;;;;-5.85;67.62;101694.48;1788278;79;21188;-71
2020/12/09 01:41:24;;;;;;;14.40;6.08;;;;;;;-5.79;67.61;101692.66;1775703;78;21631;-72
2020/12/09 01:43:53;;;;;;;12.73;5.87;;;;;;;-5.76;67.49;101693.28;1793826;79;22310;-71
2020/12/09 01:46:31;;;;;;;10.55;5.40;;;;;;;-5.77;67.28;101685.09;1786027;78;21204;-72
2020/12/09 01:49:02;;;;;;;11.70;5.67;;;;;;;-5.78;67.37;101689.14;1780748;79;22191;-71
2020/12/09 01:51:30;;;;;;;12.65;6.87;;;;;;;-5.73;67.46;101698.69;1770151;78;21172;-72
2020/12/09 01:53:59;;;;;;;11.85;6.55;;;;;;;-5.74;67.36;101697.05;1795594;78;21216;-72
2020/12/09 01:56:27;;;;;;;13.58;6.53;;;;;;;-5.75;67.25;101694.92;1811159;77;22886;-73
2020/12/09 01:58:55;;;;;;;12.95;6.80;;;;;;;-5.74;67.33;101691.84;1773662;78;21929;-73
2020/12/09 02:01:23;;;;;;;17.25;7.58;;;;;;;-5.72;67.38;101688.65;1786039;79;21446;-71
2020/12/09 02:03:50;;;;;;;11.48;5.67;;;;;;;-5.70;67.43;101693.23;1786469;79;21164;-72
2020/12/09 02:06:20;;;;;;;13.72;6.78;;;;;;;-5.67;67.42;101699.50;1816209;77;21199;-72
2020/12/09 02:08:47;;;;;;;12.82;6.05;;;;;;;-5.64;67.49;101704.46;1779253;80;21204;-71
2020/12/09 02:11:15;;;;;;;13.20;6.15;;;;;;;-5.56;67.56;101705.14;1786334;79;21199;-72
2020/12/09 02:13:46;;;;;;;12.63;6.15;;;;;;;-5.49;67.55;101711.05;1796747;78;21199;-73
2020/12/09 02:16:17;;;;;;;10.63;5.62;;;;;;;-5.42;67.39;101711.37;1798307;78;21176;-73
2020/12/09 02:18:44;;;;;;;12.30;6.30;;;;;;;-5.39;67.22;101711.61;1789436;78;21690;-74
2020/12/09 02:21:12;;;;;;;12.75;6.45;;;;;;;-5.38;67.11;101711.47;1778269;79;21849;-72
2020/12/09 02:23:39;;;;;;;12.33;6.22;;;;;;;-5.36;67.02;101713.94;1790675;78;22446;-72
2020/12/09 02:26:07;;;;;;;12.98;6.60;;;;;;;-5.38;66.89;101708.88;1799869;78;21164;-72
2020/12/09 02:28:35;;;;;;;12.90;7.17;;;;;;;-5.35;66.90;101703.89;1783853;79;21210;-73
2020/12/09 02:31:02;;;;;;;14.40;7.17;;;;;;;-5.31;66.87;101705.29;1799160;79;21140;-72
2020/12/09 02:33:30;;;;;;;12.15;6.55;;;;;;;-5.29;66.83;101702.09;1787664;79;21175;-72
2020/12/09 02:35:58;;;;;;;12.85;6.70;;;;;;;-5.29;66.75;101701.62;1787262;79;21234;-72
2020/12/09 02:38:25;;;;;;;12.23;6.30;;;;;;;-5.29;66.77;101709.91;1792232;79;21109;-72
2020/12/09 02:40:52;;;;;;;11.95;6.10;;;;;;;-5.30;66.79;101709.05;1788300;79;21187;-71
2020/12/09 02:43:20;;;;;;;13.48;6.17;;;;;;;-5.28;66.81;101704.56;1787001;78;21080;-72
2020/12/09 02:45:49;;;;;;;13.55;6.00;;;;;;;-5.26;66.81;101705.75;1785978;79;22494;-73
2020/12/09 02:48:17;;;;;;;12.90;6.80;;;;;;;-5.25;66.75;101708.22;1777874;79;21104;-71
2020/12/09 02:50:45;;;;;;;12.20;6.15;;;;;;;-5.22;66.86;101711.05;1784131;79;21172;-72
2020/12/09 02:53:13;;;;;;;11.33;6.00;;;;;;;-5.19;66.88;101716.02;1819018;77;21149;-72
2020/12/09 02:55:40;;;;;;;11.18;5.47;;;;;;;-5.16;66.86;101718.37;1816696;78;21597;-73
2020/12/09 02:58:10;;;;;;;12.73;5.80;;;;;;;-5.14;66.83;101716.45;1783468;79;21799;-72
2020/12/09 03:00:38;;;;;;;11.80;5.47;;;;;;;-5.13;66.94;101712.91;1791859;79;21607;-71
2020/12/09 03:03:06;;;;;;;11.65;6.20;;;;;;;-5.10;66.83;101716.57;1792933;79;21228;-72
2020/12/09 03:05:34;;;;;;;11.73;6.47;;;;;;;-5.10;66.85;101711.36;1790896;78;21148;-72
2020/12/09 03:08:04;;;;;;;11.75;6.20;;;;;;;-5.09;66.92;101710.88;1788959;78;21048;-72
2020/12/09 03:10:31;;;;;;;11.40;6.00;;;;;;;-5.06;66.93;101714.05;1802440;78;21381;-72
2020/12/09 03:12:59;;;;;;;10.10;5.20;;;;;;;-5.04;66.91;101714.73;1800333;79;21132;-72
2020/12/09 03:15:27;;;;;;;13.72;6.15;;;;;;;-4.99;66.97;101719.59;1785073;78;21168;-73
2020/12/09 03:17:54;;;;;;;11.05;6.37;;;;;;;-4.98;66.93;101712.93;1801441;77;21069;-72
2020/12/09 03:20:24;;;;;;;12.82;6.65;;;;;;;-4.94;66.85;101722.63;1783517;80;21184;-73
2020/12/09 03:22:54;;;;;;;12.53;6.70;;;;;;;-4.91;66.86;101720.25;1771332;79;21279;-73
2020/12/09 03:25:22;;;;;;;11.25;5.72;;;;;;;-4.85;66.87;101721.05;1794550;78;21183;-72
2020/12/09 03:27:49;;;;;;;12.25;6.95;;;;;;;-4.85;66.77;101719.26;1799600;78;21493;-72
2020/12/09 03:30:17;;;;;;;12.70;6.40;;;;;;;-4.81;66.81;101728.47;1784238;78;21124;-72
2020/12/09 03:32:44;;;;;;;12.85;6.50;;;;;;;-4.76;66.83;101721.59;1794471;79;21100;-72
2020/12/09 03:35:11;;;;;;;14.45;7.20;;;;;;;-4.73;66.82;101716.94;1795682;78;21448;-72
2020/12/09 03:37:39;;;;;;;13.30;6.72;;;;;;;-4.68;66.83;101717.84;1793782;78;21151;-73
2020/12/09 03:40:06;;;;;;;13.38;6.62;;;;;;;-4.64;66.84;101715.35;1786828;79;21139;-72
2020/12/09 03:42:34;;;;;;;13.72;6.58;;;;;;;-4.64;66.78;101714.05;1788465;79;21044;-74
2020/12/09 03:45:01;;;;;;;11.53;5.95;;;;;;;-4.67;66.86;101718.22;1793385;78;21599;-74
2020/12/09 03:47:28;;;;;;;14.18;7.67;;;;;;;-4.67;66.85;101715.61;1790094;78;21880;-73
2020/12/09 03:49:56;;;;;;;12.35;6.33;;;;;;;-4.66;66.93;101711.22;1787935;79;21124;-73
2020/12/09 03:52:23;;;;;;;10.78;5.92;;;;;;;-4.61;67.00;101711.64;1789583;79;21214;-73
2020/12/09 03:54:51;;;;;;;11.38;5.80;;;;;;;-4.58;66.95;101709.59;1786922;78;21153;-73
2020/12/09 03:57:18;;;;;;;11.48;6.53;;;;;;;-4.57;66.98;101711.75;1797761;78;21092;-73
2020/12/09 03:59:45;;;;;;;12.88;6.40;;;;;;;-4.57;66.94;101711.27;1790500;78;21492;-73
2020/12/09 04:02:13;;;;;;;12.53;6.47;;;;;;;-4.55;66.98;101709.82;1787265;78;21177;-73
2020/12/09 04:04:41;;;;;;;13.95;6.67;;;;;;;-4.58;66.99;101706.98;1815574;77;21616;-72
2020/12/09 04:07:09;;;;;;;13.10;6.45;;;;;;;-4.59;67.00;101703.22;1814816;78;21540;-73
2020/12/09 04:09:38;;;;;;;12.00;6.87;;;;;;;-4.60;67.09;101698.48;1796286;78;21240;-73
2020/12/09 04:12:05;;;;;;;14.05;6.90;;;;;;;-4.56;67.17;101706.88;1796280;78;21391;-73
2020/12/09 04:14:33;;;;;;;13.55;6.47;;;;;;;-4.56;67.12;101698.57;1797512;79;21126;-72
2020/12/09 04:17:01;;;;;;;12.40;6.20;;;;;;;-4.55;67.14;101699.39;1795160;79;21060;-73
2020/12/09 04:19:28;;;;;;;11.93;6.58;;;;;;;-4.55;67.12;101697.61;1793872;78;21175;-73
2020/12/09 04:21:55;;;;;;;11.30;6.37;;;;;;;-4.53;67.14;101707.44;1793581;78;21211;-74
2020/12/09 04:24:23;;;;;;;15.08;7.62;;;;;;;-4.53;67.14;101707.44;1801217;77;21063;-73
2020/12/09 04:26:51;;;;;;;14.93;6.47;;;;;;;-4.54;67.21;101704.95;1774772;78;21666;-72
2020/12/09 04:29:19;;;;;;;14.55;6.85;;;;;;;-4.55;67.39;101704.13;1792175;79;21169;-71
2020/12/09 04:31:46;;;;;;;14.13;6.20;;;;;;;-4.56;67.40;101698.57;1808033;77;21108;-72
2020/12/09 04:34:13;;;;;;;11.50;6.42;;;;;;;-4.58;67.53;101700.47;1788731;79;21547;-72
2020/12/09 04:36:41;;;;;;;12.78;5.75;;;;;;;-4.60;67.62;101702.88;1787531;78;21322;-73
2020/12/09 04:39:08;;;;;;;14.60;6.58;;;;;;;-4.61;67.68;101704.64;1802250;78;21225;-72
2020/12/09 04:41:36;;;;;;;14.40;6.53;;;;;;;-4.60;67.75;101703.70;1800951;78;21546;-73
2020/12/09 04:44:03;;;;;;;11.83;6.25;;;;;;;-4.61;67.75;101708.55;1799168;78;21073;-71
2020/12/09 04:46:31;;;;;;;14.25;7.50;;;;;;;-4.64;67.84;101708.84;1798121;79;21054;-73
2020/12/09 04:48:59;;;;;;;12.05;6.40;;;;;;;-4.62;67.92;101710.00;1812313;77;22493;-72
2020/12/09 04:51:51;;;;;;;13.62;7.25;;;;;;;-4.60;67.96;101708.09;1787783;78;21177;-71
2020/12/09 04:54:18;;;;;;;14.38;7.03;;;;;;;-4.57;68.04;101709.14;1755768;80;21187;-72
2020/12/09 04:56:55;;;;;;;15.48;6.97;;;;;;;-4.57;68.09;101709.14;1764919;80;21172;-73
2020/12/09 04:59:24;;;;;;;13.65;7.35;;;;;;;-4.60;68.18;101707.62;1796265;79;21085;-72
2020/12/09 05:02:06;;;;;;;13.25;6.47;;;;;;;-4.64;68.22;101704.92;1784799;79;21819;-71
2020/12/09 05:04:34;;;;;;;12.55;6.85;;;;;;;-4.66;68.31;101713.34;1788771;79;21084;-72
2020/12/09 05:07:10;;;;;;;11.40;5.92;;;;;;;-4.68;68.47;101716.55;1793548;78;21129;-72
2020/12/09 05:09:45;;;;;;;12.93;6.53;;;;;;;-4.64;68.60;101715.80;1789090;79;21152;-73
2020/12/09 05:12:20;;;;;;;12.75;6.42;;;;;;;-4.63;68.60;101717.00;1802791;78;21480;-73
2020/12/09 05:14:50;;;;;;;11.88;6.97;;;;;;;-4.60;68.64;101720.65;1774209;80;21220;-73
2020/12/09 05:17:20;;;;;;;15.58;8.10;;;;;;;-4.57;68.73;101726.91;1805206;78;21123;-73
2020/12/09 05:19:49;;;;;;;13.35;6.55;;;;;;;-4.58;68.75;101725.23;1792924;79;21097;-73
2020/12/09 05:22:21;;;;;;;13.70;6.37;;;;;;;-4.59;68.85;101723.59;1798583;78;21112;-73
2020/12/09 05:24:49;;;;;;;13.85;7.53;;;;;;;-4.57;68.96;101728.70;1796776;79;21621;-73
2020/12/09 05:27:17;;;;;;;13.90;7.90;;;;;;;-4.59;69.03;101730.11;1806290;78;21438;-73
2020/12/09 05:29:46;;;;;;;12.93;7.42;;;;;;;-4.60;69.11;101727.65;1778950;80;21124;-74
2020/12/09 05:32:14;;;;;;;12.00;6.58;;;;;;;-4.58;69.23;101739.58;1800554;78;21069;-73
2020/12/09 05:34:42;;;;;;;13.10;6.35;;;;;;;-4.60;69.33;101733.69;1788696;79;21683;-73
2020/12/09 05:37:12;;;;;;;14.10;6.50;;;;;;;-4.60;69.40;101741.50;1793364;78;21177;-72
2020/12/09 05:39:51;;;;;;;14.60;7.40;;;;;;;-4.59;69.51;101743.15;1786582;79;21463;-73
2020/12/09 05:42:21;;;;;;;13.00;6.42;;;;;;;-4.60;69.57;101744.11;1790475;79;21140;-73
2020/12/09 05:44:49;;;;;;;13.58;6.60;;;;;;;-4.57;69.62;101745.64;1787635;78;21156;-73
2020/12/09 05:47:21;;;;;;;12.65;6.80;;;;;;;-4.56;69.71;101740.77;1791271;78;21599;-72
2020/12/09 05:49:49;;;;;;;13.32;7.25;;;;;;;-4.56;69.80;101738.98;1782456;79;21532;-73
2020/12/09 05:52:21;;;;;;;13.78;6.78;;;;;;;-4.54;69.88;101734.93;1789811;79;21813;-73
2020/12/09 05:54:51;;;;;;;17.02;7.62;;;;;;;-4.57;70.02;101739.13;1790482;79;27209;-74
2020/12/09 05:57:24;;;;;;;13.48;7.35;;;;;;;-4.56;70.12;101738.98;1798136;78;21535;-73
2020/12/09 05:59:53;;;;;;;16.57;8.55;;;;;;;-4.56;70.26;101735.07;1788007;78;21093;-72
2020/12/09 06:02:25;;;;;;;13.68;7.70;;;;;;;-4.53;70.28;101736.12;1800828;78;21196;-73
2020/12/09 06:04:58;;;;;;;14.75;7.55;;;;;;;-4.50;70.40;101734.56;1813815;77;21815;-72
2020/12/09 06:07:27;;;;;;;14.25;6.65;;;;;;;-4.46;70.50;101735.13;1781310;78;21191;-73
2020/12/09 06:10:14;;;;;;;14.45;7.80;;;;;;;-4.46;70.60;101733.82;1796915;78;21762;-72
2020/12/09 06:13:00;;;;;;;14.15;7.85;;;;;;;-4.44;70.71;101738.89;1811134;77;21681;-73
2020/12/09 06:15:30;;;;;;;13.70;7.62;;;;;;;-4.44;70.87;101734.53;1782340;79;21066;-73
2020/12/09 06:18:08;;;;;;;15.40;7.80;;;;;;;-4.40;70.95;101741.61;1769314;79;21389;-70
2020/12/09 06:20:38;;;;;;;17.30;8.45;;;;;;;-4.41;71.02;101742.06;1794982;78;21187;-72
2020/12/09 06:23:16;;;;;;;16.35;8.35;;;;;;;-4.43;71.23;101743.17;1780936;78;21219;-73
2020/12/09 06:25:45;;;;;;;16.57;8.95;;;;;;;-4.43;71.33;101747.09;1797088;78;21180;-72
2020/12/09 06:28:22;;;;;;;14.93;7.85;;;;;;;-4.42;71.50;101743.03;1798458;78;21120;-73
2020/12/09 06:30:53;;;;;;;16.50;8.15;;;;;;;-4.40;71.73;101748.13;1797343;78;21367;-70
2020/12/09 06:33:42;;;;;;;15.58;8.33;;;;;;;-4.40;71.82;101748.13;1794356;78;21164;-74
2020/12/09 06:36:24;;;;;;;18.40;8.75;;;;;;;-4.43;71.99;101746.60;1790435;78;21149;-72
2020/12/09 06:39:16;;;;;;;18.15;8.23;;;;;;;-4.43;72.20;101752.30;1800968;78;21212;-72
2020/12/09 06:41:58;;;;;;;16.10;8.90;;;;;;;-4.40;72.35;101755.47;1794051;78;21191;-72
2020/12/09 06:44:30;;;;;;;15.45;8.25;;;;;;;-4.36;72.61;101752.95;1780868;79;21380;-72
2020/12/09 06:46:59;;;;;;;13.05;6.70;;;;;;;-4.35;72.76;101751.16;1779572;78;21177;-73
2020/12/09 06:49:33;;;;;;;15.50;7.72;;;;;;;-4.37;72.90;101744.78;1793981;79;21199;-73
2020/12/09 06:52:15;;;;;;;14.90;7.30;;;;;;;-4.35;73.17;101748.07;1796482;78;21148;-73
2020/12/09 06:54:46;;;;;;;14.73;8.48;;;;;;;-4.36;73.34;101750.34;1794463;78;21473;-72
2020/12/09 06:57:26;;;;;;;15.80;8.13;;;;;;;-4.33;73.51;101751.87;1797044;78;21665;-73
2020/12/09 07:00:15;;;;;;;20.20;9.30;;;;;;;-4.27;73.63;101748.74;1815638;77;21690;-72
2020/12/09 07:02:44;;;;;;;15.95;8.23;;;;;;;-4.21;73.77;101751.28;1791921;79;21087;-72
2020/12/09 07:05:16;;;;;;;18.15;9.23;;;;;;;-4.12;74.11;101746.11;1799530;78;21211;-73
2020/12/09 07:07:50;;;;;;;17.37;8.48;;;;;;;-4.12;74.11;101746.11;1792114;78;21169;-73
2020/12/09 07:10:22;;;;;;;13.35;7.33;;;;;;;-4.14;74.28;101753.26;1789667;78;21353;-73
2020/12/09 07:13:04;;;;;;;17.92;9.85;;;;;;;-4.15;74.39;101756.80;1789140;78;21204;-71
2020/12/09 07:15:32;;;;;;;;;;;;;;;-4.15;74.60;101758.59;1772269;78;21587;-71
2020/12/09 07:18:00;;;;;;;15.43;8.38;;;;;;;-4.13;74.78;101756.69;1783060;79;20230;-72
2020/12/09 07:20:29;;;;;;;16.00;8.98;;;;;;;-4.12;75.00;101756.55;1795565;78;21160;-71
2020/12/09 07:22:57;;;;;;;19.02;9.80;;;;;;;-4.13;75.15;101758.81;1798423;78;21669;-71
2020/12/09 07:25:24;;;;;;;17.40;9.00;;;;;;;-4.12;75.29;101757.84;1792939;78;21616;-71
2020/12/09 07:27:53;;;;;;;15.25;9.20;;;;;;;-4.08;75.52;101758.41;1786626;79;21144;-71
2020/12/09 07:30:21;;;;;;;17.12;9.20;;;;;;;-4.02;75.67;101757.41;1782655;79;21145;-71
2020/12/09 07:32:50;;;;;;;17.42;10.18;;;;;;;-4.02;75.67;101757.41;1788633;79;21155;-71
2020/12/09 07:35:18;;;;;;;16.55;9.03;;;;;;;-3.96;75.80;101760.45;1777128;79;21853;-73
2020/12/09 07:37:51;;;;;;;17.30;8.70;;;;;;;-3.94;75.90;101754.64;1785359;78;21216;-72
2020/12/09 07:40:27;;;;;;;20.30;9.03;;;;;;;-3.93;76.01;101764.11;1788056;79;21201;-71
2020/12/09 07:43:09;;;;;;;17.73;10.03;;;;;;;-3.89;76.02;101757.17;1784783;79;21184;-72
2020/12/09 07:45:41;;;;;;;19.02;10.00;;;;;;;-3.89;76.02;101757.17;1785440;79;21184;-73
2020/12/09 07:48:14;;;;;;;18.37;9.70;;;;;;;-3.80;76.30;101760.30;1790127;78;21374;-73
2020/12/09 07:50:48;;;;;;;13.93;7.78;;;;;;;-3.72;76.36;101761.41;1790459;79;21611;-72
2020/12/09 07:53:16;;;;;;;15.25;8.70;;;;;;;-3.65;76.41;101764.68;1793863;79;21136;-72
2020/12/09 07:55:44;;;;;;;17.25;9.13;;;;;;;-3.60;76.44;101759.04;1789160;79;21683;-73
2020/12/09 07:58:14;;;;;;;18.30;9.40;;;;;;;-3.59;76.43;101758.89;1765063;79;21164;-73
2020/12/09 08:00:47;;;;;;;18.55;9.80;;;;;;;-3.59;76.52;101756.28;1799245;79;21566;-73
2020/12/09 08:03:26;;;;;;;21.15;10.98;;;;;;;-3.56;76.56;101759.11;1785034;79;21234;-73
2020/12/09 08:05:55;;;;;;;17.00;10.05;;;;;;;-3.53;76.76;101757.53;1782440;78;21164;-72
2020/12/09 08:08:25;;;;;;;22.85;9.88;;;;;;;-3.50;76.78;101753.35;1783638;79;21149;-73
2020/12/09 08:10:53;;;;;;;18.02;9.58;;;;;;;-3.49;76.88;101756.30;1809867;78;21169;-71
2020/12/09 08:13:23;;;;;;;16.17;9.23;;;;;;;-3.47;76.96;101754.39;1779539;80;22466;-72
2020/12/09 08:16:10;;;;;;;19.52;11.12;;;;;;;-3.43;77.06;101749.72;1791787;79;21133;-73
2020/12/09 08:18:37;;;;;;;18.75;10.38;;;;;;;-3.42;77.20;101756.58;1782622;79;21182;-71
2020/12/09 08:21:04;;;;;;;18.17;10.08;;;;;;;-3.39;77.26;101761.53;1784444;79;21199;-72
2020/12/09 08:23:48;;;;;;;17.90;9.63;;;;;;;-3.37;77.36;101757.83;1791852;78;21120;-73
2020/12/09 08:26:32;;;;;;;22.37;10.58;;;;;;;-3.37;77.45;101751.78;1756959;81;21611;-74
2020/12/09 08:29:01;;;;;;;17.50;9.80;;;;;;;-3.33;77.48;101758.38;1815082;77;21485;-71
2020/12/09 08:31:28;;;;;;;15.45;8.93;;;;;;;-3.28;77.57;101751.45;1844157;76;21097;-73
2020/12/09 08:33:55;;;;;;;19.37;11.00;;;;;;;-3.24;77.62;101749.73;1801960;78;21631;-73
2020/12/09 08:36:24;;;;;;;18.42;10.23;;;;;;;-3.23;77.60;101753.16;1778293;79;21612;-73
2020/12/09 08:38:59;;;;;;;19.05;10.75;;;;;;;-3.15;77.71;101756.75;1815278;78;22108;-72
2020/12/09 08:41:33;;;;;;;19.87;10.40;;;;;;;-3.11;77.70;101753.38;1824482;78;21206;-73
2020/12/09 08:44:07;;;;;;;22.17;11.05;;;;;;;-3.13;77.74;101756.12;1781692;79;21520;-72
2020/12/09 08:46:34;;;;;;;20.57;10.72;;;;;;;-3.15;77.84;101751.53;1796611;79;21076;-73
2020/12/09 08:49:03;;;;;;;16.75;8.93;;;;;;;-3.12;77.93;101751.73;1802255;79;21052;-76
2020/12/09 08:51:36;;;;;;;17.90;9.55;;;;;;;-3.12;77.92;101749.95;1793680;79;21856;-74
2020/12/09 08:56:45;;;;;;;13.90;7.13;;;;;;;-3.15;77.78;101742.37;1754785;79;23476;-74
2020/12/09 08:59:13;;;;;;;18.42;9.43;;;;;;;-3.17;77.86;101753.92;1750290;82;21652;-74
2020/12/09 09:01:41;;;;;;;18.85;8.70;;;;;;;-3.13;77.87;101752.19;1738914;81;21272;-72
2020/12/09 09:04:10;;;;;;;17.35;8.85;;;;;;;-3.11;77.58;101746.84;1709709;82;21227;-72
2020/12/09 09:06:37;;;;;;;15.65;8.55;;;;;;;-3.12;77.46;101749.13;1733613;81;21141;-74
2020/12/09 09:09:07;;;;;;;15.93;8.30;;;;;;;-3.10;77.42;101740.16;1788286;79;21185;-73
2020/12/09 09:11:34;;;;;;;16.60;8.28;;;;;;;-3.04;77.22;101738.80;1766900;79;21169;-74
2020/12/09 09:14:01;;;;;;;16.12;8.33;;;;;;;-2.97;77.09;101732.04;1779724;79;21620;-72
2020/12/09 09:16:30;;;;;;;16.87;8.50;;;;;;;-2.95;76.85;101734.05;1764547;80;21184;-72
2020/12/09 09:18:58;;;;;;;15.15;8.50;;;;;;;-2.94;76.72;101725.72;1788397;79;21117;-73
2020/12/09 09:21:25;;;;;;;16.90;9.25;;;;;;;-2.88;76.76;101727.28;1756193;80;21689;-73
2020/12/09 09:23:53;;;;;;;15.58;8.73;;;;;;;-2.83;76.48;101725.55;1749668;81;21648;-73
2020/12/09 09:26:20;;;;;;;16.62;9.53;;;;;;;-2.79;76.22;101730.04;1744766;81;21255;-73
2020/12/09 09:28:48;;;;;;;17.30;9.40;;;;;;;-2.79;76.05;101723.02;1732543;81;21171;-74
2020/12/09 09:31:15;;;;;;;15.95;7.83;;;;;;;-2.76;75.89;101725.35;1738714;81;21175;-73
2020/12/09 09:33:43;;;;;;;14.68;7.65;;;;;;;-2.67;75.81;101722.35;1737085;82;21196;-74
2020/12/09 09:36:11;;;;;;;15.70;8.73;;;;;;;-2.62;75.48;101715.73;1739358;82;21179;-74
2020/12/09 09:38:41;;;;;;;18.95;9.93;;;;;;;-2.61;74.89;101723.92;1736750;82;21379;-74
2020/12/09 09:41:10;;;;;;;19.32;9.95;;;;;;;-2.62;74.93;101724.08;1715720;82;21171;-74
2020/12/09 09:43:38;;;;;;;15.23;8.15;;;;;;;-2.62;74.91;101722.77;1710607;83;21123;-74
2020/12/09 09:46:07;;;;;;;16.40;8.08;;;;;;;-2.56;74.84;101721.38;1720869;82;21218;-75
2020/12/09 09:48:34;;;;;;;17.12;8.53;;;;;;;-2.55;74.50;101720.41;1713794;82;21123;-75
2020/12/09 09:51:01;;;;;;;15.03;8.30;;;;;;;-2.55;74.15;101721.23;1710836;83;21810;-75
2020/12/09 09:53:29;;;;;;;15.60;7.92;;;;;;;-2.54;74.17;101713.71;1720265;82;21187;-73
2020/12/09 09:55:57;;;;;;;14.30;7.50;;;;;;;-2.52;73.76;101710.97;1710826;83;21524;-73
2020/12/09 09:58:24;;;;;;;16.35;7.55;;;;;;;-2.52;73.67;101717.51;1713326;82;21080;-74
2020/12/09 10:00:52;;;;;;;14.95;8.25;;;;;;;-2.51;73.59;101716.05;1710108;83;21179;-73
2020/12/09 10:03:19;;;;;;;17.35;8.50;;;;;;;-2.50;73.61;101711.17;1712945;82;21506;-74
2020/12/09 10:05:46;;;;;;;14.23;6.85;;;;;;;-2.48;73.55;101715.77;1712450;82;21135;-75
2020/12/09 10:08:14;;;;;;;14.63;7.62;;;;;;;-2.46;73.26;101705.17;1709338;82;21191;-74
2020/12/09 10:10:42;;;;;;;15.13;8.30;;;;;;;-2.50;73.07;101713.80;1718732;82;21167;-74
2020/12/09 10:13:09;;;;;;;16.05;8.40;;;;;;;-2.56;73.07;101712.23;1738975;82;21268;-74
2020/12/09 10:15:39;;;;;;;14.25;6.97;;;;;;;-2.60;73.24;101712.97;1734792;82;22695;-74
2020/12/09 10:18:06;;;;;;;16.48;8.35;;;;;;;-2.61;73.37;101712.15;1710531;83;21195;-73
2020/12/09 10:20:34;;;;;;;15.72;8.65;;;;;;;-2.58;73.48;101707.61;1709643;83;21168;-76
2020/12/09 10:23:02;;;;;;;17.27;8.48;;;;;;;-2.55;73.50;101705.53;1742782;81;21603;-75
2020/12/09 10:25:30;;;;;;;16.70;8.43;;;;;;;-2.53;73.46;101710.61;1735777;81;21595;-72
2020/12/09 10:27:58;;;;;;;16.48;8.75;;;;;;;-2.51;73.46;101712.61;1720179;82;22317;-74
2020/12/09 10:30:25;;;;;;;17.70;9.23;;;;;;;-2.51;73.36;101706.89;1738776;82;21282;-74
2020/12/09 10:32:53;;;;;;;15.80;8.13;;;;;;;-2.50;73.32;101711.63;1723241;82;21207;-73
2020/12/09 10:35:20;;;;;;;17.35;8.83;;;;;;;-2.51;73.37;101704.27;1735580;81;22248;-74
2020/12/09 10:37:48;;;;;;;17.67;8.25;;;;;;;-2.53;73.31;101701.00;1747444;81;21419;-73
2020/12/09 10:40:16;;;;;;;16.40;8.45;;;;;;;-2.52;73.19;101699.20;1788241;79;21202;-74
2020/12/09 10:42:43;;;;;;;17.30;9.20;;;;;;;-2.53;73.11;101697.53;1780097;80;21159;-73
2020/12/09 10:45:11;;;;;;;15.28;8.45;;;;;;;-2.52;73.07;101692.66;1751421;80;21256;-74
2020/12/09 10:47:42;;;;;;;17.12;8.48;;;;;;;-2.51;73.05;101696.42;1749967;82;21162;-74
2020/12/09 10:50:10;;;;;;;26.15;10.80;;;;;;;-2.50;73.05;101699.41;1760908;79;21638;-76
2020/12/09 10:52:37;;;;;;;17.52;9.20;;;;;;;-2.49;73.12;101694.50;1791637;79;21559;-77
2020/12/09 10:55:04;;;;;;;18.15;9.58;;;;;;;-2.45;73.09;101700.27;1788136;79;21602;-77
2020/12/09 10:57:32;;;;;;;18.95;8.98;;;;;;;-2.46;72.98;101690.30;1750968;79;21175;-77
2020/12/09 10:59:59;;;;;;;17.05;8.98;;;;;;;-2.51;72.94;101696.91;1761486;80;21153;-76
2020/12/09 11:02:27;;;;;;;17.85;8.88;;;;;;;-2.58;72.91;101696.66;1729202;81;21149;-77
2020/12/09 11:04:54;;;;;;;18.40;9.73;;;;;;;-2.63;72.90;101698.41;1783861;79;21819;-76
2020/12/09 11:07:22;;;;;;;17.82;9.60;;;;;;;-2.68;72.94;101707.15;1792957;79;21584;-76
2020/12/09 11:09:51;;;;;;;16.20;8.73;;;;;;;-2.69;73.15;101702.08;1734050;80;21193;-77
2020/12/09 11:12:19;;;;;;;20.68;9.68;;;;;;;-2.68;73.31;101708.45;1734874;82;21188;-78
2020/12/09 11:14:49;;;;;;;19.75;9.85;;;;;;;-2.69;73.41;101706.00;1737549;82;21156;-76
2020/12/09 11:17:17;;;;;;;18.27;9.10;;;;;;;-2.69;73.47;101704.69;1714990;82;21434;-77
2020/12/09 11:19:44;;;;;;;19.32;9.85;;;;;;;-2.67;73.65;101710.58;1711319;83;21119;-76
2020/12/09 11:22:12;;;;;;;16.37;8.73;;;;;;;-2.70;73.71;101707.80;1716412;82;21155;-76
2020/12/09 11:24:40;;;;;;;17.98;9.28;;;;;;;-2.74;73.79;101709.02;1710389;82;21217;-77
2020/12/09 11:27:07;;;;;;;20.82;10.63;;;;;;;-2.72;73.93;101701.87;1711479;82;21072;-77
2020/12/09 11:29:34;;;;;;;15.40;7.92;;;;;;;-2.71;74.10;101700.08;1718937;82;21390;-76
2020/12/09 11:32:02;;;;;;;20.00;9.38;;;;;;;-2.72;74.25;101699.25;1737239;81;21217;-76